createdAt,value
2023-01-21T00:00:15.045Z,53.60
2023-01-21T00:02:41.663Z,53.60
2023-01-21T00:05:08.149Z,53.50
2023-01-21T00:07:34.606Z,53.40
2023-01-21T00:10:01.064Z,53.40
2023-01-21T00:12:27.539Z,53.40
2023-01-21T00:14:53.998Z,53.50
2023-01-21T00:17:20.464Z,53.50
2023-01-21T00:19:46.944Z,53.40
2023-01-21T00:22:13.406Z,53.50
2023-01-21T00:24:39.883Z,53.40
2023-01-21T00:27:06.363Z,53.50
2023-01-21T00:29:32.840Z,53.40
2023-01-21T00:31:59.414Z,53.30
2023-01-21T00:34:25.916Z,53.30
2023-01-21T00:36:52.393Z,53.30
2023-01-21T00:39:18.901Z,53.30
2023-01-21T00:41:45.352Z,53.40
2023-01-21T00:44:11.839Z,53.40
2023-01-21T00:46:38.454Z,53.40
2023-01-21T00:49:05.010Z,53.50
2023-01-21T00:51:31.466Z,53.40
2023-01-21T00:53:57.939Z,53.30
2023-01-21T00:56:24.417Z,53.40
2023-01-21T00:58:51.107Z,53.10
2023-01-21T01:01:17.774Z,53.20
2023-01-21T01:03:44.281Z,53.20
2023-01-21T01:06:10.765Z,53.20
2023-01-21T01:08:37.258Z,53.20
2023-01-21T01:11:03.740Z,53.30
2023-01-21T01:13:30.224Z,53.20
2023-01-21T01:15:56.725Z,53.80
2023-01-21T01:18:23.242Z,53.00
2023-01-21T01:20:49.718Z,53.00
2023-01-21T01:23:16.182Z,53.00
2023-01-21T01:25:42.678Z,53.00
2023-01-21T01:28:09.138Z,53.10
2023-01-21T01:30:35.729Z,53.00
2023-01-21T01:33:02.238Z,53.00
2023-01-21T01:35:28.720Z,53.60
2023-01-21T01:37:55.202Z,53.00
2023-01-21T01:40:21.682Z,53.00
2023-01-21T01:42:48.160Z,52.80
2023-01-21T01:45:14.625Z,52.80
2023-01-21T01:47:41.110Z,52.90
2023-01-21T01:50:07.598Z,52.80
2023-01-21T01:52:34.085Z,52.80
2023-01-21T01:55:00.582Z,52.80
2023-01-21T01:57:27.095Z,52.90
2023-01-21T01:59:53.588Z,52.80
2023-01-21T02:02:20.081Z,52.80
2023-01-21T02:04:46.558Z,52.70
2023-01-21T02:07:13.030Z,52.70
2023-01-21T02:09:39.514Z,52.70
2023-01-21T02:12:05.984Z,52.70
2023-01-21T02:14:32.496Z,52.70
2023-01-21T02:16:58.971Z,52.60
2023-01-21T02:19:25.461Z,52.70
2023-01-21T02:21:51.945Z,52.70
2023-01-21T02:24:18.423Z,52.70
2023-01-21T02:26:44.892Z,52.80
2023-01-21T02:29:11.389Z,52.80
2023-01-21T02:31:37.947Z,52.80
2023-01-21T02:34:04.419Z,52.70
2023-01-21T02:36:30.906Z,52.70
2023-01-21T02:38:57.408Z,52.70
2023-01-21T02:41:23.873Z,52.80
2023-01-21T02:43:50.358Z,52.70
2023-01-21T02:46:16.907Z,52.60
2023-01-21T02:48:43.376Z,52.60
2023-01-21T02:51:09.864Z,52.50
2023-01-21T02:53:36.359Z,52.50
2023-01-21T02:56:02.838Z,52.40
2023-01-21T02:58:29.355Z,52.50
2023-01-21T03:00:55.894Z,52.40
2023-01-21T03:03:22.406Z,52.50
2023-01-21T03:05:48.884Z,52.50
2023-01-21T03:08:15.376Z,52.50
2023-01-21T03:10:41.876Z,52.50
2023-01-21T03:13:08.374Z,52.50
2023-01-21T03:15:34.863Z,52.50
2023-01-21T03:18:01.332Z,52.40
2023-01-21T03:20:27.856Z,52.50
2023-01-21T03:22:54.328Z,52.50
2023-01-21T03:25:20.813Z,52.50
2023-01-21T03:27:47.285Z,52.50
2023-01-21T03:30:13.793Z,52.50
2023-01-21T03:32:40.263Z,52.40
2023-01-21T03:35:06.747Z,52.40
2023-01-21T03:37:33.218Z,52.40
2023-01-21T03:39:59.681Z,52.40
2023-01-21T03:42:26.180Z,52.40
2023-01-21T03:44:52.833Z,52.40
2023-01-21T03:47:19.323Z,52.40
2023-01-21T03:49:45.813Z,52.40
2023-01-21T03:52:12.315Z,52.30
2023-01-21T03:54:38.803Z,52.40
2023-01-21T03:57:05.301Z,52.30
2023-01-21T03:59:31.787Z,52.20
2023-01-21T04:01:58.306Z,52.10
2023-01-21T04:04:24.765Z,52.30
2023-01-21T04:06:51.226Z,52.30
2023-01-21T04:09:17.707Z,52.20
2023-01-21T04:11:44.178Z,52.10
2023-01-21T04:14:10.642Z,52.10
2023-01-21T04:16:37.171Z,52.20
2023-01-21T04:19:03.677Z,52.00
2023-01-21T04:21:30.231Z,52.00
2023-01-21T04:23:56.691Z,52.00
2023-01-21T04:26:23.156Z,52.00
2023-01-21T04:28:49.622Z,52.10
2023-01-21T04:31:16.109Z,52.10
2023-01-21T04:33:42.608Z,52.00
2023-01-21T04:36:09.079Z,51.90
2023-01-21T04:38:35.561Z,52.00
2023-01-21T04:41:02.046Z,51.90
2023-01-21T04:43:28.510Z,51.90
2023-01-21T04:45:55.060Z,52.10
2023-01-21T04:48:21.561Z,52.10
2023-01-21T04:50:48.091Z,51.90
2023-01-21T04:53:14.606Z,51.90
2023-01-21T04:55:41.071Z,52.00
2023-01-21T04:58:07.551Z,51.90
2023-01-21T05:00:34.031Z,51.80
2023-01-21T05:03:00.520Z,51.90
2023-01-21T05:05:27.095Z,51.80
2023-01-21T05:07:53.566Z,51.90
2023-01-21T05:10:20.046Z,51.80
2023-01-21T05:12:46.535Z,51.80
2023-01-21T05:15:13.055Z,51.80
2023-01-21T05:17:39.535Z,51.80
2023-01-21T05:20:05.993Z,51.70
2023-01-21T05:22:32.467Z,51.80
2023-01-21T05:24:58.940Z,51.80
2023-01-21T05:27:25.424Z,51.80
2023-01-21T05:29:51.902Z,51.70
2023-01-21T05:32:18.387Z,51.70
2023-01-21T05:34:44.873Z,51.70
2023-01-21T05:37:11.345Z,51.70
2023-01-21T05:39:37.816Z,51.60
2023-01-21T05:42:04.291Z,51.50
2023-01-21T05:44:30.765Z,51.60
2023-01-21T05:46:57.243Z,51.50
2023-01-21T05:49:23.714Z,51.40
2023-01-21T05:51:50.182Z,52.20
2023-01-21T05:54:16.680Z,51.50
2023-01-21T05:56:43.140Z,51.50
2023-01-21T05:59:09.619Z,51.50
2023-01-21T06:01:36.108Z,51.40
2023-01-21T06:04:02.571Z,51.40
2023-01-21T06:06:29.047Z,51.40
2023-01-21T06:08:55.521Z,51.30
2023-01-21T06:11:22.001Z,51.30
2023-01-21T06:13:48.475Z,51.30
2023-01-21T06:16:14.954Z,51.20
2023-01-21T06:18:41.424Z,51.30
2023-01-21T06:21:07.909Z,51.40
2023-01-21T06:23:34.396Z,51.20
2023-01-21T06:26:00.957Z,51.30
2023-01-21T06:28:27.493Z,51.30
2023-01-21T06:30:54.063Z,51.30
2023-01-21T06:33:20.571Z,51.30
2023-01-21T06:35:47.067Z,51.20
2023-01-21T06:38:13.572Z,51.20
2023-01-21T06:40:40.088Z,51.10
2023-01-21T06:43:06.581Z,51.10
2023-01-21T06:45:33.062Z,51.10
2023-01-21T06:47:59.565Z,51.20
2023-01-21T06:50:26.043Z,51.20
2023-01-21T06:52:52.536Z,51.10
2023-01-21T06:55:19.010Z,50.90
2023-01-21T06:57:45.499Z,51.00
2023-01-21T07:00:11.964Z,51.00
2023-01-21T07:02:38.485Z,50.90
2023-01-21T07:05:05.020Z,50.90
2023-01-21T07:07:31.524Z,50.90
2023-01-21T07:09:58.028Z,51.00
2023-01-21T07:12:24.514Z,51.00
2023-01-21T07:14:51.001Z,51.00
2023-01-21T07:17:17.479Z,51.10
2023-01-21T07:19:43.969Z,51.10
2023-01-21T07:22:10.457Z,51.10
2023-01-21T07:24:36.927Z,51.10
2023-01-21T07:27:03.430Z,51.10
2023-01-21T07:29:30.170Z,51.00
2023-01-21T07:31:56.680Z,51.00
2023-01-21T07:34:23.227Z,51.00
2023-01-21T07:36:49.738Z,51.00
2023-01-21T07:39:16.252Z,50.90
2023-01-21T07:41:42.727Z,51.00
2023-01-21T07:44:09.232Z,50.90
2023-01-21T07:46:35.715Z,51.00
2023-01-21T07:49:02.228Z,50.90
2023-01-21T07:51:28.692Z,51.10
2023-01-21T07:53:55.169Z,51.10
2023-01-21T07:56:21.651Z,51.00
2023-01-21T07:58:48.140Z,51.10
2023-01-21T08:01:14.612Z,51.10
2023-01-21T08:03:41.087Z,51.10
2023-01-21T08:06:07.550Z,51.00
2023-01-21T08:08:34.053Z,51.10
2023-01-21T08:11:00.542Z,51.70
2023-01-21T08:13:32.309Z,50.90
2023-01-21T08:15:58.870Z,51.00
2023-01-21T08:18:25.430Z,51.10
2023-01-21T08:20:51.927Z,51.10
2023-01-21T08:23:18.402Z,51.10
2023-01-21T08:25:44.853Z,51.20
2023-01-21T08:28:11.328Z,51.10
2023-01-21T08:30:37.833Z,51.10
2023-01-21T08:33:06.392Z,51.20
2023-01-21T08:35:33.006Z,51.20
2023-01-21T08:37:59.548Z,51.20
2023-01-21T08:40:26.027Z,51.20
2023-01-21T08:42:52.536Z,51.20
2023-01-21T08:45:20.635Z,51.30
2023-01-21T08:47:47.325Z,51.20
2023-01-21T08:50:13.811Z,51.30
2023-01-21T08:52:40.284Z,51.30
2023-01-21T08:55:06.771Z,51.20
2023-01-21T08:57:33.261Z,51.20
2023-01-21T08:59:59.758Z,51.20
2023-01-21T09:02:26.317Z,51.30
2023-01-21T09:04:52.806Z,51.30
2023-01-21T09:07:19.282Z,51.40
2023-01-21T09:09:45.766Z,51.40
2023-01-21T09:12:12.241Z,51.50
2023-01-21T09:14:38.717Z,51.40
2023-01-21T09:17:05.184Z,51.30
2023-01-21T09:19:31.666Z,51.40
2023-01-21T09:21:58.135Z,51.50
2023-01-21T09:24:24.607Z,51.50
2023-01-21T09:26:51.079Z,51.40
2023-01-21T09:29:17.559Z,51.40
2023-01-21T09:31:44.050Z,51.50
2023-01-21T09:34:10.546Z,51.40
2023-01-21T09:36:37.030Z,51.40
2023-01-21T09:39:03.527Z,51.60
2023-01-21T09:41:29.986Z,51.60
2023-01-21T09:43:56.487Z,51.60
2023-01-21T09:46:22.971Z,51.60
2023-01-21T09:48:49.491Z,51.60
2023-01-21T09:51:16.104Z,51.70
2023-01-21T09:53:42.611Z,51.60
2023-01-21T09:56:09.095Z,51.70
2023-01-21T09:58:35.575Z,51.70
2023-01-21T10:01:02.111Z,51.70
2023-01-21T10:03:28.604Z,51.60
2023-01-21T10:05:55.081Z,51.60
2023-01-21T10:08:21.559Z,51.70
2023-01-21T10:10:48.051Z,51.70
2023-01-21T10:13:14.512Z,51.80
2023-01-21T10:15:40.961Z,51.90
2023-01-21T10:18:07.429Z,51.80
2023-01-21T10:20:33.914Z,51.90
2023-01-21T10:23:00.393Z,51.90
2023-01-21T10:25:26.883Z,51.90
2023-01-21T10:27:53.372Z,51.90
2023-01-21T10:30:19.834Z,51.90
2023-01-21T10:32:46.310Z,51.90
2023-01-21T10:35:12.810Z,51.90
2023-01-21T10:37:39.323Z,51.90
2023-01-21T10:40:05.827Z,51.90
2023-01-21T10:42:32.330Z,52.00
2023-01-21T10:44:58.800Z,52.00
2023-01-21T10:47:25.276Z,52.00
2023-01-21T10:49:51.737Z,52.70
2023-01-21T10:52:18.222Z,52.00
2023-01-21T10:54:44.687Z,52.10
2023-01-21T10:57:11.169Z,52.00
2023-01-21T10:59:37.688Z,52.00
2023-01-21T11:02:04.158Z,52.10
2023-01-21T11:04:30.620Z,52.00
2023-01-21T11:06:57.095Z,52.10
2023-01-21T11:09:23.560Z,52.20
2023-01-21T11:11:50.055Z,52.10
2023-01-21T11:14:16.543Z,52.10
2023-01-21T11:16:43.338Z,52.20
2023-01-21T11:19:09.814Z,52.20
2023-01-21T11:21:36.298Z,52.20
2023-01-21T11:24:02.756Z,52.20
2023-01-21T11:26:29.247Z,52.20
2023-01-21T11:28:55.717Z,52.30
2023-01-21T11:31:22.254Z,52.40
2023-01-21T11:33:48.853Z,52.40
2023-01-21T11:36:15.354Z,52.40
2023-01-21T11:38:41.828Z,52.40
2023-01-21T11:41:10.850Z,52.40
2023-01-21T11:43:37.487Z,52.50
2023-01-21T11:46:04.012Z,52.50
2023-01-21T11:48:30.514Z,52.40
2023-01-21T11:50:57.046Z,52.50
2023-01-21T11:53:23.545Z,52.60
2023-01-21T11:55:50.018Z,52.50
2023-01-21T11:58:16.496Z,52.50
2023-01-21T12:00:42.980Z,52.70
2023-01-21T12:03:09.462Z,52.60
2023-01-21T12:05:35.953Z,52.60
2023-01-21T12:08:02.429Z,52.60
2023-01-21T12:10:28.921Z,52.70
2023-01-21T12:12:55.378Z,53.30
2023-01-21T12:15:21.886Z,52.70
2023-01-21T12:17:48.364Z,52.70
2023-01-21T12:20:15.156Z,52.60
2023-01-21T12:22:41.884Z,52.70
2023-01-21T12:25:08.335Z,52.60
2023-01-21T12:27:34.829Z,52.70
2023-01-21T12:30:01.303Z,52.80
2023-01-21T12:32:27.805Z,52.80
2023-01-21T12:34:54.306Z,52.80
2023-01-21T12:37:20.797Z,52.80
2023-01-21T12:39:47.264Z,52.80
2023-01-21T12:42:13.748Z,52.80
2023-01-21T12:44:40.229Z,52.80
2023-01-21T12:47:06.701Z,52.70
2023-01-21T12:49:38.623Z,52.80
2023-01-21T12:52:05.112Z,52.80
2023-01-21T12:54:31.588Z,52.80
2023-01-21T12:56:58.059Z,52.80
2023-01-21T12:59:24.531Z,52.90
2023-01-21T13:01:51.031Z,52.80
2023-01-21T13:04:17.536Z,52.80
2023-01-21T13:06:53.470Z,52.80
2023-01-21T13:09:20.866Z,52.80
2023-01-21T13:11:47.365Z,52.80
2023-01-21T13:14:13.848Z,52.90
2023-01-21T13:16:40.450Z,52.90
2023-01-21T13:19:06.947Z,52.90
2023-01-21T13:21:33.453Z,53.00
2023-01-21T13:23:59.938Z,52.90
2023-01-21T13:26:26.438Z,52.90
2023-01-21T13:28:52.902Z,53.00
2023-01-21T13:31:19.525Z,53.00
2023-01-21T13:33:46.032Z,52.90
2023-01-21T13:36:12.533Z,52.90
2023-01-21T13:38:39.015Z,53.00
2023-01-21T13:41:05.473Z,53.10
2023-01-21T13:43:31.951Z,53.00
2023-01-21T13:45:58.442Z,53.10
2023-01-21T13:48:25.139Z,53.10
2023-01-21T13:50:51.662Z,53.10
2023-01-21T13:53:18.149Z,53.10
2023-01-21T13:55:44.638Z,53.10
2023-01-21T13:58:11.142Z,53.10
2023-01-21T14:00:37.647Z,53.00
2023-01-21T14:03:04.145Z,53.10
2023-01-21T14:05:30.654Z,53.20
2023-01-21T14:07:57.143Z,53.20
2023-01-21T14:10:23.639Z,53.30
2023-01-21T14:12:50.094Z,53.30
2023-01-21T14:15:20.607Z,53.30
2023-01-21T14:17:47.089Z,53.30
2023-01-21T14:20:13.570Z,53.40
2023-01-21T14:22:40.070Z,53.40
2023-01-21T14:25:06.542Z,53.20
2023-01-21T14:27:33.034Z,53.30
2023-01-21T14:29:59.514Z,53.30
2023-01-21T14:32:26.030Z,53.20
2023-01-21T14:34:52.520Z,53.20
2023-01-21T14:37:19.014Z,53.20
2023-01-21T14:39:45.490Z,53.10
2023-01-21T14:42:11.964Z,53.20
2023-01-21T14:44:38.460Z,53.20
2023-01-21T14:47:05.003Z,53.30
2023-01-21T14:49:31.469Z,53.20
2023-01-21T14:51:57.945Z,53.10
2023-01-21T14:54:24.456Z,53.20
2023-01-21T14:56:50.928Z,53.20
2023-01-21T14:59:17.400Z,53.30
2023-01-21T15:01:43.863Z,53.20
2023-01-21T15:04:10.325Z,53.20
2023-01-21T15:06:36.831Z,53.10
2023-01-21T15:09:03.313Z,53.10
2023-01-21T15:11:29.851Z,53.20
2023-01-21T15:13:56.324Z,53.30
2023-01-21T15:16:22.856Z,53.20
2023-01-21T15:18:49.334Z,53.20
2023-01-21T15:21:15.817Z,53.10
2023-01-21T15:23:42.304Z,53.10
2023-01-21T15:26:08.816Z,53.10
2023-01-21T15:28:35.318Z,53.10
2023-01-21T15:31:01.840Z,53.00
2023-01-21T15:33:28.390Z,53.10
2023-01-21T15:35:54.886Z,53.10
2023-01-21T15:38:21.370Z,53.00
2023-01-21T15:40:47.835Z,53.10
2023-01-21T15:43:14.312Z,53.10
2023-01-21T15:45:40.923Z,53.10
2023-01-21T15:48:07.448Z,53.10
2023-01-21T15:50:33.942Z,53.20
2023-01-21T15:53:00.424Z,53.00
2023-01-21T15:55:26.930Z,53.10
2023-01-21T15:57:53.424Z,52.90
2023-01-21T16:00:19.898Z,53.00
2023-01-21T16:02:46.402Z,53.00
2023-01-21T16:05:12.898Z,52.90
2023-01-21T16:07:39.386Z,52.90
2023-01-21T16:10:05.862Z,53.00
2023-01-21T16:12:32.371Z,53.00
2023-01-21T16:14:58.850Z,53.10
2023-01-21T16:17:25.329Z,53.00
2023-01-21T16:19:51.806Z,53.00
2023-01-21T16:22:18.312Z,52.90
2023-01-21T16:24:44.771Z,53.00
2023-01-21T16:27:11.264Z,53.00
2023-01-21T16:29:37.743Z,53.10
2023-01-21T16:32:04.340Z,52.90
2023-01-21T16:34:30.867Z,52.90
2023-01-21T16:36:57.379Z,52.90
2023-01-21T16:39:23.846Z,52.90
2023-01-21T16:41:50.337Z,53.00
2023-01-21T16:44:16.833Z,53.00
2023-01-21T16:46:43.326Z,53.00
2023-01-21T16:49:09.793Z,53.00
2023-01-21T16:51:36.286Z,53.00
2023-01-21T16:54:03.272Z,53.00
2023-01-21T16:56:29.799Z,52.90
2023-01-21T16:58:56.283Z,52.80
2023-01-21T17:01:22.811Z,52.90
2023-01-21T17:03:49.352Z,53.00
2023-01-21T17:06:15.808Z,52.90
2023-01-21T17:08:42.291Z,52.80
2023-01-21T17:11:08.775Z,52.90
2023-01-21T17:13:35.255Z,53.00
2023-01-21T17:16:01.810Z,53.00
2023-01-21T17:18:28.299Z,53.00
2023-01-21T17:20:54.784Z,52.90
2023-01-21T17:23:21.293Z,52.90
2023-01-21T17:25:47.788Z,52.90
2023-01-21T17:28:14.269Z,52.80
2023-01-21T17:30:40.837Z,52.90
2023-01-21T17:33:07.379Z,52.80
2023-01-21T17:35:33.873Z,52.80
2023-01-21T17:38:00.349Z,52.80
2023-01-21T17:40:26.833Z,52.70
2023-01-21T17:42:53.336Z,52.70
2023-01-21T17:45:19.994Z,52.80
2023-01-21T17:48:07.292Z,52.60
2023-01-21T17:50:33.001Z,52.80
2023-01-21T17:52:59.473Z,52.80
2023-01-21T17:55:25.978Z,52.70
2023-01-21T17:57:52.476Z,52.70
2023-01-21T18:00:18.960Z,52.70
2023-01-21T18:02:45.446Z,52.70
2023-01-21T18:05:11.954Z,52.70
2023-01-21T18:07:38.452Z,52.70
2023-01-21T18:10:04.979Z,52.70
2023-01-21T18:12:31.459Z,52.70
2023-01-21T18:14:58.017Z,52.70
2023-01-21T18:17:24.471Z,52.70
2023-01-21T18:19:51.020Z,52.80
2023-01-21T18:22:17.521Z,52.70
2023-01-21T18:24:43.987Z,52.70
2023-01-21T18:27:10.465Z,52.60
2023-01-21T18:29:36.938Z,52.70
2023-01-21T18:32:03.489Z,52.50
2023-01-21T18:34:30.056Z,52.60
2023-01-21T18:36:57.658Z,52.50
2023-01-21T18:39:24.180Z,52.60
2023-01-21T18:41:50.658Z,52.60
2023-01-21T18:44:17.158Z,52.70
2023-01-21T18:46:43.728Z,52.70
2023-01-21T18:49:10.295Z,52.60
2023-01-21T18:51:36.755Z,52.60
2023-01-21T18:54:03.257Z,52.70
2023-01-21T18:56:29.738Z,52.70
2023-01-21T18:58:56.254Z,52.70
2023-01-21T19:01:24.110Z,52.60
2023-01-21T19:03:50.682Z,52.50
2023-01-21T19:06:17.166Z,52.50
2023-01-21T19:08:43.634Z,52.50
2023-01-21T19:11:10.099Z,52.60
2023-01-21T19:13:36.570Z,52.50
2023-01-21T19:16:03.106Z,52.60
2023-01-21T19:18:29.623Z,52.70
2023-01-21T19:20:56.115Z,52.70
2023-01-21T19:23:22.604Z,52.70
2023-01-21T19:25:49.110Z,52.60
2023-01-21T19:28:15.593Z,52.60
2023-01-21T19:30:42.100Z,52.80
2023-01-21T19:33:08.592Z,52.70
2023-01-21T19:35:35.109Z,52.70
2023-01-21T19:38:01.582Z,52.70
2023-01-21T19:40:28.077Z,52.60
2023-01-21T19:42:54.553Z,52.70
2023-01-21T19:45:21.074Z,52.60
2023-01-21T19:47:47.554Z,52.60
2023-01-21T19:50:14.055Z,52.50
2023-01-21T19:52:40.543Z,52.70
2023-01-21T19:55:07.044Z,52.70
2023-01-21T19:57:33.496Z,52.60
2023-01-21T19:59:59.994Z,52.70
2023-01-21T20:02:26.480Z,52.60
2023-01-21T20:04:52.957Z,52.70
2023-01-21T20:07:19.446Z,52.60
2023-01-21T20:09:45.940Z,52.60
2023-01-21T20:12:12.482Z,52.70
2023-01-21T20:14:38.987Z,52.70
2023-01-21T20:17:05.451Z,52.80
2023-01-21T20:19:31.908Z,52.70
2023-01-21T20:22:02.877Z,52.80
2023-01-21T20:24:29.601Z,52.80
2023-01-21T20:26:56.086Z,52.70
2023-01-21T20:29:22.573Z,52.80
2023-01-21T20:31:49.072Z,52.70
2023-01-21T20:34:15.581Z,52.80
2023-01-21T20:36:42.069Z,52.80
2023-01-21T20:39:08.539Z,52.70
2023-01-21T20:41:35.004Z,52.80
2023-01-21T20:44:01.502Z,52.80
2023-01-21T20:46:27.979Z,52.70
2023-01-21T20:48:54.467Z,52.70
2023-01-21T20:51:21.022Z,52.80
2023-01-21T20:53:47.574Z,52.70
2023-01-21T20:56:14.073Z,52.70
2023-01-21T20:58:40.542Z,52.80
2023-01-21T21:01:07.213Z,52.80
2023-01-21T21:03:33.768Z,52.90
2023-01-21T21:06:02.926Z,52.90
2023-01-21T21:08:29.404Z,52.80
2023-01-21T21:10:55.887Z,52.90
2023-01-21T21:13:22.374Z,52.90
2023-01-21T21:15:48.868Z,52.90
2023-01-21T21:18:15.385Z,52.90
2023-01-21T21:20:41.880Z,52.90
2023-01-21T21:23:08.417Z,53.00
2023-01-21T21:25:34.889Z,52.90
2023-01-21T21:28:01.350Z,52.90
2023-01-21T21:30:27.835Z,52.90
2023-01-21T21:32:54.308Z,53.00
2023-01-21T21:35:20.776Z,53.00
2023-01-21T21:37:47.275Z,53.00
2023-01-21T21:40:13.742Z,53.00
2023-01-21T21:42:40.234Z,52.80
2023-01-21T21:45:06.716Z,52.90
2023-01-21T21:47:33.195Z,52.80
2023-01-21T21:49:59.685Z,52.90
2023-01-21T21:52:26.176Z,53.10
2023-01-21T21:54:52.652Z,53.10
2023-01-21T21:57:20.977Z,53.00
2023-01-21T21:59:47.448Z,53.00
2023-01-21T22:02:14.015Z,53.00
2023-01-21T22:04:40.513Z,53.10
2023-01-21T22:07:06.986Z,53.00
2023-01-21T22:09:33.465Z,53.00
2023-01-21T22:11:59.937Z,53.00
2023-01-21T22:14:26.410Z,53.10
2023-01-21T22:16:52.909Z,52.90
2023-01-21T22:19:19.405Z,52.90
2023-01-21T22:21:45.896Z,53.00
2023-01-21T22:24:12.420Z,53.00
2023-01-21T22:26:38.966Z,53.00
2023-01-21T22:29:05.467Z,53.10
2023-01-21T22:31:32.099Z,53.10
2023-01-21T22:33:58.658Z,53.10
2023-01-21T22:36:25.158Z,53.00
2023-01-21T22:38:51.641Z,52.90
2023-01-21T22:41:18.151Z,53.10
2023-01-21T22:43:44.653Z,53.00
2023-01-21T22:46:11.255Z,52.90
2023-01-21T22:48:37.748Z,53.00
2023-01-21T22:51:04.312Z,53.00
2023-01-21T22:53:30.785Z,52.90
2023-01-21T22:55:57.290Z,52.80
2023-01-21T22:58:23.787Z,53.00
2023-01-21T23:00:50.282Z,53.00
2023-01-21T23:03:16.749Z,53.10
2023-01-21T23:05:43.277Z,53.00
2023-01-21T23:08:09.770Z,53.00
2023-01-21T23:10:36.262Z,52.90
2023-01-21T23:13:02.700Z,52.80
2023-01-21T23:15:29.235Z,52.80
2023-01-21T23:17:55.708Z,52.80
2023-01-21T23:20:22.164Z,52.90
2023-01-21T23:22:48.755Z,52.90
2023-01-21T23:25:15.223Z,52.90
2023-01-21T23:27:41.705Z,52.90
2023-01-21T23:30:08.159Z,52.80
2023-01-21T23:32:34.635Z,52.80
2023-01-21T23:35:01.094Z,53.00
2023-01-21T23:37:27.578Z,52.90
2023-01-21T23:39:54.053Z,52.90
2023-01-21T23:42:20.531Z,52.90
2023-01-21T23:44:46.978Z,52.90
2023-01-21T23:47:13.455Z,52.90
2023-01-21T23:49:39.937Z,52.90
2023-01-21T23:52:06.414Z,52.90
2023-01-21T23:54:32.904Z,52.80
2023-01-21T23:56:59.408Z,53.00
2023-01-21T23:59:25.874Z,53.00
